Terminal Aerodrome Forecast
Issued by NWS

Home | Current Version | Previous Version | Graphics & Text | Print | Product List | Glossary On
Versions: 1 2 3 4 5 6 7 8 9 10 11 12 13
283
FTUS43 KMPX 241720
TAFAXN
TAF
KAXN 241720Z 2418/2518 30015G24KT P6SM VCSH SCT025 BKN050 BKN110
     FM242200 31016G24KT P6SM BKN070
     FM250100 31013G21KT P6SM BKN025
     FM250300 31011KT P6SM BKN015 BKN025
     FM251300 31012G22KT P6SM FEW020 SCT030=

USA.gov is the U.S. government's official web portal to all federal, state and local government web resources and services.